sensor_id;sensor_type;location;lat;lon;timestamp;pressure;altitude;pressure_sealevel;temperature;humidity
32033;BME280;31720;52.638;9.216;2023-02-22T00:02:48;101361.78;;;8.57;100.00
32033;BME280;31720;52.638;9.216;2023-02-22T00:05:51;101363.50;;;8.58;100.00
32033;BME280;31720;52.638;9.216;2023-02-22T00:08:55;101372.28;;;8.57;100.00
32033;BME280;31720;52.638;9.216;2023-02-22T00:11:56;101353.94;;;8.57;100.00
32033;BME280;31720;52.638;9.216;2023-02-22T00:14:58;101352.28;;;8.54;100.00
32033;BME280;31720;52.638;9.216;2023-02-22T00:17:59;101361.16;;;8.50;100.00
32033;BME280;31720;52.638;9.216;2023-02-22T00:21:01;101359.50;;;8.48;100.00
32033;BME280;31720;52.638;9.216;2023-02-22T00:24:04;101362.88;;;8.51;100.00
32033;BME280;31720;52.638;9.216;2023-02-22T00:27:21;101360.34;;;8.48;100.00
32033;BME280;31720;52.638;9.216;2023-02-22T00:30:25;101363.81;;;8.49;100.00
32033;BME280;31720;52.638;9.216;2023-02-22T00:33:26;101350.72;;;8.49;100.00
32033;BME280;31720;52.638;9.216;2023-02-22T00:36:28;101351.78;;;8.43;100.00
32033;BME280;31720;52.638;9.216;2023-02-22T00:39:30;101347.38;;;8.45;100.00
32033;BME280;31720;52.638;9.216;2023-02-22T00:42:32;101352.63;;;8.45;100.00
32033;BME280;31720;52.638;9.216;2023-02-22T00:45:34;101345.69;;;8.43;100.00
32033;BME280;31720;52.638;9.216;2023-02-22T00:48:36;101343.94;;;8.43;100.00
32033;BME280;31720;52.638;9.216;2023-02-22T00:51:37;101328.28;;;8.42;100.00
32033;BME280;31720;52.638;9.216;2023-02-22T00:54:40;101337.09;;;8.39;100.00
32033;BME280;31720;52.638;9.216;2023-02-22T00:57:41;101336.31;;;8.37;100.00
32033;BME280;31720;52.638;9.216;2023-02-22T01:00:43;101330.34;;;8.32;100.00
32033;BME280;31720;52.638;9.216;2023-02-22T01:03:45;101328.50;;;8.34;100.00
32033;BME280;31720;52.638;9.216;2023-02-22T01:06:46;101325.91;;;8.34;100.00
32033;BME280;31720;52.638;9.216;2023-02-22T01:09:49;101329.31;;;8.37;100.00
32033;BME280;31720;52.638;9.216;2023-02-22T01:12:50;101331.06;;;8.37;100.00
32033;BME280;31720;52.638;9.216;2023-02-22T01:15:53;101324.09;;;8.36;100.00
32033;BME280;31720;52.638;9.216;2023-02-22T01:18:55;101324.97;;;8.36;100.00
32033;BME280;31720;52.638;9.216;2023-02-22T01:21:57;101318.09;;;8.32;100.00
32033;BME280;31720;52.638;9.216;2023-02-22T01:24:59;101317.19;;;8.33;100.00
32033;BME280;31720;52.638;9.216;2023-02-22T01:28:01;101308.53;;;8.31;100.00
32033;BME280;31720;52.638;9.216;2023-02-22T01:31:03;101316.50;;;8.28;100.00
32033;BME280;31720;52.638;9.216;2023-02-22T01:34:05;101306.28;;;8.21;100.00
32033;BME280;31720;52.638;9.216;2023-02-22T01:37:06;101310.81;;;8.16;100.00
32033;BME280;31720;52.638;9.216;2023-02-22T01:40:15;101297.03;;;8.10;100.00
32033;BME280;31720;52.638;9.216;2023-02-22T01:43:20;101298.09;;;8.05;100.00
32033;BME280;31720;52.638;9.216;2023-02-22T01:46:24;101293.88;;;8.01;100.00
32033;BME280;31720;52.638;9.216;2023-02-22T01:49:28;101295.97;;;7.89;100.00
32033;BME280;31720;52.638;9.216;2023-02-22T01:52:31;101289.13;;;7.85;100.00
32033;BME280;31720;52.638;9.216;2023-02-22T01:55:34;101292.81;;;7.80;100.00
32033;BME280;31720;52.638;9.216;2023-02-22T01:58:38;101288.59;;;7.76;100.00
32033;BME280;31720;52.638;9.216;2023-02-22T02:01:41;101283.50;;;7.71;100.00
32033;BME280;31720;52.638;9.216;2023-02-22T02:04:43;101281.09;;;7.65;100.00
32033;BME280;31720;52.638;9.216;2023-02-22T02:07:45;101287.34;;;7.61;100.00
32033;BME280;31720;52.638;9.216;2023-02-22T02:10:50;101284.97;;;7.53;100.00
32033;BME280;31720;52.638;9.216;2023-02-22T02:13:55;101278.19;;;7.48;100.00
32033;BME280;31720;52.638;9.216;2023-02-22T02:16:57;101278.25;;;7.45;100.00
32033;BME280;31720;52.638;9.216;2023-02-22T02:20:06;101275.91;;;7.37;100.00
32033;BME280;31720;52.638;9.216;2023-02-22T02:23:35;101273.47;;;7.31;100.00
32033;BME280;31720;52.638;9.216;2023-02-22T02:26:56;101265.91;;;7.22;100.00
32033;BME280;31720;52.638;9.216;2023-02-22T02:30:28;101261.75;;;7.16;100.00
32033;BME280;31720;52.638;9.216;2023-02-22T02:33:41;101267.03;;;7.15;100.00
32033;BME280;31720;52.638;9.216;2023-02-22T02:36:55;101265.25;;;7.15;100.00
32033;BME280;31720;52.638;9.216;2023-02-22T02:40:07;101266.03;;;7.19;100.00
32033;BME280;31720;52.638;9.216;2023-02-22T02:43:13;101252.97;;;7.19;100.00
32033;BME280;31720;52.638;9.216;2023-02-22T02:46:19;101259.69;;;7.26;100.00
32033;BME280;31720;52.638;9.216;2023-02-22T02:49:27;101252.06;;;7.20;100.00
32033;BME280;31720;52.638;9.216;2023-02-22T02:52:32;101248.53;;;7.21;100.00
32033;BME280;31720;52.638;9.216;2023-02-22T02:55:35;101246.75;;;7.23;100.00
32033;BME280;31720;52.638;9.216;2023-02-22T02:58:44;101247.63;;;7.22;100.00
32033;BME280;31720;52.638;9.216;2023-02-22T03:01:56;101241.66;;;7.18;100.00
32033;BME280;31720;52.638;9.216;2023-02-22T03:05:13;101240.06;;;7.12;100.00
32033;BME280;31720;52.638;9.216;2023-02-22T03:08:19;101232.38;;;7.08;100.00
32033;BME280;31720;52.638;9.216;2023-02-22T03:11:27;101223.72;;;7.06;100.00
32033;BME280;31720;52.638;9.216;2023-02-22T03:14:37;101224.03;;;6.97;100.00
32033;BME280;31720;52.638;9.216;2023-02-22T03:17:46;101219.78;;;6.93;100.00
32033;BME280;31720;52.638;9.216;2023-02-22T03:20:58;101219.78;;;6.93;100.00
32033;BME280;31720;52.638;9.216;2023-02-22T03:24:08;101214.63;;;6.91;100.00
32033;BME280;31720;52.638;9.216;2023-02-22T03:27:11;101215.63;;;6.85;100.00
32033;BME280;31720;52.638;9.216;2023-02-22T03:30:20;101212.28;;;6.82;100.00
32033;BME280;31720;52.638;9.216;2023-02-22T03:33:26;101214.75;;;6.86;100.00
32033;BME280;31720;52.638;9.216;2023-02-22T03:36:37;101204.31;;;6.86;100.00
32033;BME280;31720;52.638;9.216;2023-02-22T03:39:42;101207.78;;;6.85;100.00
32033;BME280;31720;52.638;9.216;2023-02-22T03:42:47;101207.06;;;6.82;100.00
32033;BME280;31720;52.638;9.216;2023-02-22T03:45:49;101194.28;;;6.73;100.00
32033;BME280;31720;52.638;9.216;2023-02-22T03:48:54;101197.78;;;6.72;100.00
32033;BME280;31720;52.638;9.216;2023-02-22T03:52:00;101204.75;;;6.71;100.00
32033;BME280;31720;52.638;9.216;2023-02-22T03:55:03;101186.53;;;6.70;100.00
32033;BME280;31720;52.638;9.216;2023-02-22T03:58:11;101192.66;;;6.69;100.00
32033;BME280;31720;52.638;9.216;2023-02-22T04:01:14;101193.69;;;6.63;100.00
32033;BME280;31720;52.638;9.216;2023-02-22T04:04:15;101198.09;;;6.61;100.00
32033;BME280;31720;52.638;9.216;2023-02-22T04:07:18;101192.09;;;6.57;100.00
32033;BME280;31720;52.638;9.216;2023-02-22T04:10:20;101195.50;;;6.61;100.00
32033;BME280;31720;52.638;9.216;2023-02-22T04:13:22;101194.84;;;6.53;100.00
32033;BME280;31720;52.638;9.216;2023-02-22T04:16:23;101197.53;;;6.51;100.00
32033;BME280;31720;52.638;9.216;2023-02-22T04:19:25;101194.97;;;6.50;100.00
32033;BME280;31720;52.638;9.216;2023-02-22T04:22:28;101180.28;;;6.46;100.00
32033;BME280;31720;52.638;9.216;2023-02-22T04:25:29;101179.31;;;6.48;100.00
32033;BME280;31720;52.638;9.216;2023-02-22T04:28:30;101183.63;;;6.51;100.00
32033;BME280;31720;52.638;9.216;2023-02-22T04:31:32;101181.91;;;6.50;100.00
32033;BME280;31720;52.638;9.216;2023-02-22T04:34:33;101189.59;;;6.54;100.00
32033;BME280;31720;52.638;9.216;2023-02-22T04:37:36;101187.94;;;6.52;100.00
32033;BME280;31720;52.638;9.216;2023-02-22T04:40:37;101178.53;;;6.46;100.00
32033;BME280;31720;52.638;9.216;2023-02-22T04:43:39;101185.47;;;6.47;100.00
32033;BME280;31720;52.638;9.216;2023-02-22T04:46:40;101180.28;;;6.46;100.00
32033;BME280;31720;52.638;9.216;2023-02-22T04:49:41;101189.00;;;6.45;100.00
32033;BME280;31720;52.638;9.216;2023-02-22T04:52:46;101181.22;;;6.43;100.00
32033;BME280;31720;52.638;9.216;2023-02-22T04:55:47;101186.50;;;6.42;100.00
32033;BME280;31720;52.638;9.216;2023-02-22T04:58:48;101182.19;;;6.41;100.00
32033;BME280;31720;52.638;9.216;2023-02-22T05:01:50;101179.59;;;6.39;100.00
32033;BME280;31720;52.638;9.216;2023-02-22T05:04:51;101176.22;;;6.35;100.00
32033;BME280;31720;52.638;9.216;2023-02-22T05:07:54;101173.78;;;6.29;100.00
32033;BME280;31720;52.638;9.216;2023-02-22T05:10:55;101173.00;;;6.26;100.00
32033;BME280;31720;52.638;9.216;2023-02-22T05:13:57;101166.09;;;6.25;100.00
32033;BME280;31720;52.638;9.216;2023-02-22T05:16:59;101160.06;;;6.23;100.00
32033;BME280;31720;52.638;9.216;2023-02-22T05:20:00;101167.06;;;6.22;100.00
32033;BME280;31720;52.638;9.216;2023-02-22T05:23:04;101161.78;;;6.24;100.00
32033;BME280;31720;52.638;9.216;2023-02-22T05:26:06;101159.13;;;6.25;100.00
32033;BME280;31720;52.638;9.216;2023-02-22T05:29:07;101167.91;;;6.23;100.00
32033;BME280;31720;52.638;9.216;2023-02-22T05:32:09;101155.84;;;6.17;100.00
32033;BME280;31720;52.638;9.216;2023-02-22T05:35:12;101148.00;;;6.19;100.00
32033;BME280;31720;52.638;9.216;2023-02-22T05:38:15;101141.16;;;6.15;100.00
32033;BME280;31720;52.638;9.216;2023-02-22T05:41:16;101148.16;;;6.13;100.00
32033;BME280;31720;52.638;9.216;2023-02-22T05:44:17;101139.47;;;6.14;100.00
32033;BME280;31720;52.638;9.216;2023-02-22T05:47:19;101135.22;;;6.09;100.00
32033;BME280;31720;52.638;9.216;2023-02-22T05:50:20;101134.44;;;6.06;100.00
32033;BME280;31720;52.638;9.216;2023-02-22T05:53:23;101133.63;;;6.04;100.00
32033;BME280;31720;52.638;9.216;2023-02-22T05:56:27;101126.84;;;5.98;100.00
32033;BME280;31720;52.638;9.216;2023-02-22T05:59:29;101126.75;;;6.01;100.00
32033;BME280;31720;52.638;9.216;2023-02-22T06:02:30;101128.53;;;5.99;100.00
32033;BME280;31720;52.638;9.216;2023-02-22T06:05:32;101123.44;;;5.96;100.00
32033;BME280;31720;52.638;9.216;2023-02-22T06:08:35;101125.13;;;5.97;100.00
32033;BME280;31720;52.638;9.216;2023-02-22T06:11:36;101118.28;;;5.93;100.00
32033;BME280;31720;52.638;9.216;2023-02-22T06:14:37;101116.53;;;5.94;100.00
32033;BME280;31720;52.638;9.216;2023-02-22T06:17:40;101118.16;;;5.98;100.00
32033;BME280;31720;52.638;9.216;2023-02-22T06:20:41;101114.84;;;5.91;100.00
32033;BME280;31720;52.638;9.216;2023-02-22T06:23:44;101107.91;;;5.92;100.00
32033;BME280;31720;52.638;9.216;2023-02-22T06:26:46;101117.44;;;5.93;100.00
32033;BME280;31720;52.638;9.216;2023-02-22T06:29:54;101119.22;;;5.91;100.00
32033;BME280;31720;52.638;9.216;2023-02-22T06:32:55;101120.94;;;5.92;100.00
32033;BME280;31720;52.638;9.216;2023-02-22T06:35:56;101123.53;;;5.90;100.00
32033;BME280;31720;52.638;9.216;2023-02-22T06:38:59;101127.06;;;5.89;100.00
32033;BME280;31720;52.638;9.216;2023-02-22T06:42:00;101125.44;;;5.85;100.00
32033;BME280;31720;52.638;9.216;2023-02-22T06:45:02;101130.63;;;5.87;100.00
32033;BME280;31720;52.638;9.216;2023-02-22T06:48:04;101124.56;;;5.86;100.00
32033;BME280;31720;52.638;9.216;2023-02-22T06:51:06;101131.38;;;5.90;100.00
32033;BME280;31720;52.638;9.216;2023-02-22T06:54:09;101128.75;;;5.90;100.00
32033;BME280;31720;52.638;9.216;2023-02-22T06:57:10;101127.06;;;5.89;100.00
32033;BME280;31720;52.638;9.216;2023-02-22T07:00:14;101123.25;;;5.70;100.00
32033;BME280;31720;52.638;9.216;2023-02-22T07:03:16;101120.84;;;5.62;100.00
32033;BME280;31720;52.638;9.216;2023-02-22T07:06:17;101124.28;;;5.64;100.00
32033;BME280;31720;52.638;9.216;2023-02-22T07:09:20;101124.28;;;5.64;100.00
32033;BME280;31720;52.638;9.216;2023-02-22T07:12:21;101120.72;;;5.67;100.00
32033;BME280;31720;52.638;9.216;2023-02-22T07:15:24;101119.72;;;5.72;100.00
32033;BME280;31720;52.638;9.216;2023-02-22T07:18:27;101116.22;;;5.72;100.00
32033;BME280;31720;52.638;9.216;2023-02-22T07:21:28;101125.69;;;5.76;100.00
32033;BME280;31720;52.638;9.216;2023-02-22T07:24:32;101114.38;;;5.77;100.00
32033;BME280;31720;52.638;9.216;2023-02-22T07:27:35;101119.50;;;5.80;100.00
32033;BME280;31720;52.638;9.216;2023-02-22T07:30:37;101119.34;;;5.86;100.00
32033;BME280;31720;52.638;9.216;2023-02-22T07:33:38;101122.03;;;5.83;100.00
32033;BME280;31720;52.638;9.216;2023-02-22T07:36:39;101125.34;;;5.88;100.00
32033;BME280;31720;52.638;9.216;2023-02-22T07:39:42;101121.81;;;5.92;100.00
32033;BME280;31720;52.638;9.216;2023-02-22T07:42:51;101116.44;;;5.97;100.00
32033;BME280;31720;52.638;9.216;2023-02-22T07:45:54;101113.78;;;6.00;100.00
32033;BME280;31720;52.638;9.216;2023-02-22T07:48:55;101123.13;;;6.07;100.00
32033;BME280;31720;52.638;9.216;2023-02-22T07:51:57;101116.00;;;6.12;100.00
32033;BME280;31720;52.638;9.216;2023-02-22T07:54:59;101117.72;;;6.13;100.00
32033;BME280;31720;52.638;9.216;2023-02-22T07:58:04;101110.63;;;6.18;100.00
32033;BME280;31720;52.638;9.216;2023-02-22T08:01:06;101106.00;;;6.26;100.00
32033;BME280;31720;52.638;9.216;2023-02-22T08:04:07;101113.69;;;6.32;100.00
32033;BME280;31720;52.638;9.216;2023-02-22T08:07:09;101112.63;;;6.38;100.00
32033;BME280;31720;52.638;9.216;2023-02-22T08:10:12;101111.59;;;6.44;100.00
32033;BME280;31720;52.638;9.216;2023-02-22T08:13:15;101106.28;;;6.47;100.00
32033;BME280;31720;52.638;9.216;2023-02-22T08:16:17;101109.59;;;6.52;100.00
32033;BME280;31720;52.638;9.216;2023-02-22T08:19:18;101112.00;;;6.59;100.00
32033;BME280;31720;52.638;9.216;2023-02-22T08:22:19;101110.00;;;6.68;100.00
32033;BME280;31720;52.638;9.216;2023-02-22T08:25:24;101109.03;;;6.70;100.00
32033;BME280;31720;52.638;9.216;2023-02-22T08:28:26;101107.13;;;6.75;100.00
32033;BME280;31720;52.638;9.216;2023-02-22T08:31:27;101111.34;;;6.79;100.00
32033;BME280;31720;52.638;9.216;2023-02-22T08:34:28;101102.50;;;6.83;100.00
32033;BME280;31720;52.638;9.216;2023-02-22T08:37:30;101102.22;;;6.93;100.00
32033;BME280;31720;52.638;9.216;2023-02-22T08:40:34;101101.06;;;7.01;100.00
32033;BME280;31720;52.638;9.216;2023-02-22T08:43:36;101099.94;;;7.08;100.00
32033;BME280;31720;52.638;9.216;2023-02-22T08:46:38;101092.75;;;7.15;100.00
32033;BME280;31720;52.638;9.216;2023-02-22T08:49:39;101093.41;;;7.22;100.00
32033;BME280;31720;52.638;9.216;2023-02-22T08:52:41;101092.22;;;7.30;100.00
32033;BME280;31720;52.638;9.216;2023-02-22T08:55:44;101091.91;;;7.40;100.00
32033;BME280;31720;52.638;9.216;2023-02-22T08:58:45;101090.00;;;7.45;100.00
32033;BME280;31720;52.638;9.216;2023-02-22T09:01:47;101086.38;;;7.49;100.00
32033;BME280;31720;52.638;9.216;2023-02-22T09:04:49;101084.28;;;7.58;100.00
32033;BME280;31720;52.638;9.216;2023-02-22T09:07:51;101083.09;;;7.67;100.00
32033;BME280;31720;52.638;9.216;2023-02-22T09:10:53;101085.44;;;7.75;100.00
32033;BME280;31720;52.638;9.216;2023-02-22T09:13:55;101080.91;;;7.80;100.00
32033;BME280;31720;52.638;9.216;2023-02-22T09:16:56;101074.53;;;7.87;100.00
32033;BME280;31720;52.638;9.216;2023-02-22T09:19:57;101083.81;;;7.96;100.00
32033;BME280;31720;52.638;9.216;2023-02-22T09:22:59;101082.28;;;8.13;100.00
32033;BME280;31720;52.638;9.216;2023-02-22T09:26:03;101073.22;;;8.22;100.00
32033;BME280;31720;52.638;9.216;2023-02-22T09:29:05;101078.28;;;8.27;100.00
32033;BME280;31720;52.638;9.216;2023-02-22T09:32:08;101077.47;;;8.25;100.00
32033;BME280;31720;52.638;9.216;2023-02-22T09:35:10;101072.06;;;8.29;100.00
32033;BME280;31720;52.638;9.216;2023-02-22T09:38:14;101063.09;;;8.35;100.00
32033;BME280;31720;52.638;9.216;2023-02-22T09:41:23;101068.16;;;8.41;100.00
32033;BME280;31720;52.638;9.216;2023-02-22T09:44:35;101068.81;;;8.46;100.00
32033;BME280;31720;52.638;9.216;2023-02-22T09:47:47;101058.03;;;8.54;100.00
32033;BME280;31720;52.638;9.216;2023-02-22T09:50:51;101063.03;;;8.60;100.00
32033;BME280;31720;52.638;9.216;2023-02-22T09:53:56;101060.97;;;8.68;100.00
32033;BME280;31720;52.638;9.216;2023-02-22T09:57:04;101070.41;;;8.72;100.00
32033;BME280;31720;52.638;9.216;2023-02-22T10:00:13;101066.72;;;8.76;100.00
32033;BME280;31720;52.638;9.216;2023-02-22T10:03:23;101066.53;;;8.81;100.00
32033;BME280;31720;52.638;9.216;2023-02-22T10:06:25;101061.91;;;8.87;100.00
32033;BME280;31720;52.638;9.216;2023-02-22T10:09:27;101050.06;;;8.99;100.00
32033;BME280;31720;52.638;9.216;2023-02-22T10:12:37;101056.84;;;9.05;100.00
32033;BME280;31720;52.638;9.216;2023-02-22T10:15:45;101049.44;;;9.14;100.00
32033;BME280;31720;52.638;9.216;2023-02-22T10:19:06;101045.50;;;9.25;100.00
32033;BME280;31720;52.638;9.216;2023-02-22T10:22:20;101043.50;;;9.30;100.00
32033;BME280;31720;52.638;9.216;2023-02-22T10:25:27;101042.28;;;9.38;100.00
32033;BME280;31720;52.638;9.216;2023-02-22T10:28:38;101048.13;;;9.45;100.00
32033;BME280;31720;52.638;9.216;2023-02-22T10:31:44;101040.09;;;9.48;100.00
32033;BME280;31720;52.638;9.216;2023-02-22T10:34:47;101032.81;;;9.55;100.00
32033;BME280;31720;52.638;9.216;2023-02-22T10:37:52;101032.41;;;9.64;100.00
32033;BME280;31720;52.638;9.216;2023-02-22T10:40:59;101030.34;;;9.71;100.00
32033;BME280;31720;52.638;9.216;2023-02-22T10:44:03;101025.81;;;9.74;100.00
32033;BME280;31720;52.638;9.216;2023-02-22T10:47:07;101036.09;;;9.79;100.00
32033;BME280;31720;52.638;9.216;2023-02-22T10:50:11;101029.88;;;9.81;100.00
32033;BME280;31720;52.638;9.216;2023-02-22T10:53:14;101028.72;;;9.87;100.00
32033;BME280;31720;52.638;9.216;2023-02-22T10:56:17;101021.50;;;9.92;100.00
32033;BME280;31720;52.638;9.216;2023-02-22T10:59:30;101019.28;;;10.02;100.00
32033;BME280;31720;52.638;9.216;2023-02-22T11:02:34;101013.53;;;10.12;100.00
32033;BME280;31720;52.638;9.216;2023-02-22T11:05:37;101007.22;;;10.16;100.00
32033;BME280;31720;52.638;9.216;2023-02-22T11:08:39;101001.69;;;10.23;100.00
32033;BME280;31720;52.638;9.216;2023-02-22T11:11:42;100997.81;;;10.31;100.00
32033;BME280;31720;52.638;9.216;2023-02-22T11:14:46;100988.81;;;10.35;100.00
32033;BME280;31720;52.638;9.216;2023-02-22T11:17:50;100991.16;;;10.41;100.00
32033;BME280;31720;52.638;9.216;2023-02-22T11:20:59;100993.19;;;10.54;100.00
32033;BME280;31720;52.638;9.216;2023-02-22T11:24:06;100989.34;;;10.61;100.00
32033;BME280;31720;52.638;9.216;2023-02-22T11:27:08;100984.22;;;10.75;100.00
32033;BME280;31720;52.638;9.216;2023-02-22T11:30:23;100979.59;;;10.80;100.00
32033;BME280;31720;52.638;9.216;2023-02-22T11:33:26;100961.66;;;10.88;100.00
32033;BME280;31720;52.638;9.216;2023-02-22T11:36:32;100971.00;;;10.94;100.00
32033;BME280;31720;52.638;9.216;2023-02-22T11:39:36;100964.41;;;11.03;100.00
32033;BME280;31720;52.638;9.216;2023-02-22T11:42:38;100961.84;;;11.18;100.00
32033;BME280;31720;52.638;9.216;2023-02-22T11:45:55;100965.84;;;11.26;100.00
32033;BME280;31720;52.638;9.216;2023-02-22T11:49:01;100960.19;;;11.33;100.00
32033;BME280;31720;52.638;9.216;2023-02-22T11:52:17;100954.44;;;11.42;100.00
32033;BME280;31720;52.638;9.216;2023-02-22T11:55:25;100954.19;;;11.47;100.00
32033;BME280;31720;52.638;9.216;2023-02-22T11:58:37;100950.38;;;11.53;100.00
32033;BME280;31720;52.638;9.216;2023-02-22T12:01:45;100947.19;;;11.63;100.00
32033;BME280;31720;52.638;9.216;2023-02-22T12:05:09;100943.94;;;11.74;100.00
32033;BME280;31720;52.638;9.216;2023-02-22T12:08:23;100943.47;;;11.83;100.00
32033;BME280;31720;52.638;9.216;2023-02-22T12:11:34;100938.38;;;11.96;100.00
32033;BME280;31720;52.638;9.216;2023-02-22T12:14:45;100929.28;;;12.02;100.00
32033;BME280;31720;52.638;9.216;2023-02-22T12:17:57;100936.50;;;12.14;100.00
32033;BME280;31720;52.638;9.216;2023-02-22T12:21:03;100926.53;;;12.19;100.00
32033;BME280;31720;52.638;9.216;2023-02-22T12:24:09;100925.44;;;12.23;100.00
32033;BME280;31720;52.638;9.216;2023-02-22T12:27:17;100923.53;;;12.25;100.00
32033;BME280;31720;52.638;9.216;2023-02-22T12:30:22;100924.13;;;12.30;100.00
32033;BME280;31720;52.638;9.216;2023-02-22T12:33:27;100916.47;;;12.26;100.00
32033;BME280;31720;52.638;9.216;2023-02-22T12:36:34;100914.63;;;12.28;100.00
32033;BME280;31720;52.638;9.216;2023-02-22T12:39:45;100921.84;;;12.24;100.00
32033;BME280;31720;52.638;9.216;2023-02-22T12:42:56;100921.94;;;12.23;100.00
32033;BME280;31720;52.638;9.216;2023-02-22T12:46:00;100924.16;;;12.14;100.00
32033;BME280;31720;52.638;9.216;2023-02-22T12:49:11;100916.94;;;12.18;100.00
32033;BME280;31720;52.638;9.216;2023-02-22T12:52:24;100927.38;;;12.19;100.00
32033;BME280;31720;52.638;9.216;2023-02-22T12:55:37;100910.47;;;12.24;100.00
32033;BME280;31720;52.638;9.216;2023-02-22T12:58:49;100915.63;;;12.25;100.00
32033;BME280;31720;52.638;9.216;2023-02-22T13:01:57;100904.34;;;12.23;100.00
32033;BME280;31720;52.638;9.216;2023-02-22T13:05:02;100903.72;;;12.34;100.00
32033;BME280;31720;52.638;9.216;2023-02-22T13:08:20;100903.81;;;12.32;100.00
32033;BME280;31720;52.638;9.216;2023-02-22T13:11:27;100898.28;;;12.37;100.00
32033;BME280;31720;52.638;9.216;2023-02-22T13:14:44;100901.84;;;12.36;100.00
32033;BME280;31720;52.638;9.216;2023-02-22T13:17:56;100897.91;;;12.43;100.00
32033;BME280;31720;52.638;9.216;2023-02-22T13:21:04;100893.22;;;12.48;100.00
32033;BME280;31720;52.638;9.216;2023-02-22T13:24:16;100883.03;;;12.42;100.00
32033;BME280;31720;52.638;9.216;2023-02-22T13:27:22;100879.47;;;12.43;100.00
32033;BME280;31720;52.638;9.216;2023-02-22T13:30:36;100868.91;;;12.43;100.00
32033;BME280;31720;52.638;9.216;2023-02-22T13:33:51;100866.94;;;12.47;100.00
32033;BME280;31720;52.638;9.216;2023-02-22T13:37:13;100871.28;;;12.48;100.00
32033;BME280;31720;52.638;9.216;2023-02-22T13:40:34;100865.16;;;12.47;100.00
32033;BME280;31720;52.638;9.216;2023-02-22T13:44:15;100865.16;;;12.47;100.00
32033;BME280;31720;52.638;9.216;2023-02-22T13:47:46;100860.47;;;12.52;100.00
32033;BME280;31720;52.638;9.216;2023-02-22T13:51:23;100861.22;;;12.54;100.00
32033;BME280;31720;52.638;9.216;2023-02-22T13:54:38;100854.84;;;12.58;100.00
32033;BME280;31720;52.638;9.216;2023-02-22T13:57:42;100846.38;;;12.67;100.00
32033;BME280;31720;52.638;9.216;2023-02-22T14:00:48;100844.03;;;12.77;100.00
32033;BME280;31720;52.638;9.216;2023-02-22T14:04:18;100843.47;;;12.72;100.00
32033;BME280;31720;52.638;9.216;2023-02-22T14:07:53;100849.38;;;12.76;100.00
32033;BME280;31720;52.638;9.216;2023-02-22T14:10:57;100849.38;;;12.76;100.00
32033;BME280;31720;52.638;9.216;2023-02-22T14:14:11;100845.03;;;12.75;100.00
32033;BME280;31720;52.638;9.216;2023-02-22T14:17:24;100837.69;;;12.80;100.00
32033;BME280;31720;52.638;9.216;2023-02-22T14:20:31;100836.56;;;12.84;100.00
32033;BME280;31720;52.638;9.216;2023-02-22T14:23:35;100845.88;;;12.89;100.00
32033;BME280;31720;52.638;9.216;2023-02-22T14:26:43;100838.34;;;12.98;100.00
32033;BME280;31720;52.638;9.216;2023-02-22T14:29:55;100830.63;;;13.09;100.00
32033;BME280;31720;52.638;9.216;2023-02-22T14:32:57;100832.03;;;13.14;100.00
32033;BME280;31720;52.638;9.216;2023-02-22T14:35:59;100835.63;;;13.13;100.00
32033;BME280;31720;52.638;9.216;2023-02-22T14:39:11;100828.06;;;13.07;100.00
32033;BME280;31720;52.638;9.216;2023-02-22T14:42:20;100826.69;;;13.02;100.00
32033;BME280;31720;52.638;9.216;2023-02-22T14:45:25;100823.38;;;12.98;100.00
32033;BME280;31720;52.638;9.216;2023-02-22T14:48:31;100823.31;;;12.85;100.00
32033;BME280;31720;52.638;9.216;2023-02-22T14:51:40;100822.94;;;12.77;100.00
32033;BME280;31720;52.638;9.216;2023-02-22T14:54:51;100821.97;;;12.78;100.00
32033;BME280;31720;52.638;9.216;2023-02-22T14:58:01;100829.78;;;12.80;100.00
32033;BME280;31720;52.638;9.216;2023-02-22T15:01:21;100828.09;;;12.79;100.00
32033;BME280;31720;52.638;9.216;2023-02-22T15:04:24;100824.78;;;12.75;100.00
32033;BME280;31720;52.638;9.216;2023-02-22T15:07:28;100821.41;;;12.73;100.00
32033;BME280;31720;52.638;9.216;2023-02-22T15:10:39;100816.44;;;12.68;100.00
32033;BME280;31720;52.638;9.216;2023-02-22T15:13:48;100825.56;;;12.63;100.00
32033;BME280;31720;52.638;9.216;2023-02-22T15:16:52;100816.22;;;12.57;100.00
32033;BME280;31720;52.638;9.216;2023-02-22T15:19:54;100812.94;;;12.54;100.00
32033;BME280;31720;52.638;9.216;2023-02-22T15:22:57;100813.97;;;12.51;100.00
32033;BME280;31720;52.638;9.216;2023-02-22T15:25:59;100810.59;;;12.49;100.00
32033;BME280;31720;52.638;9.216;2023-02-22T15:29:09;100810.59;;;12.49;100.00
32033;BME280;31720;52.638;9.216;2023-02-22T15:32:29;100807.94;;;12.49;100.00
32033;BME280;31720;52.638;9.216;2023-02-22T15:35:31;100803.97;;;12.42;100.00
32033;BME280;31720;52.638;9.216;2023-02-22T15:38:33;100811.47;;;12.34;100.00
32033;BME280;31720;52.638;9.216;2023-02-22T15:41:34;100813.38;;;12.32;100.00
32033;BME280;31720;52.638;9.216;2023-02-22T15:44:39;100808.28;;;12.29;100.00
32033;BME280;31720;52.638;9.216;2023-02-22T15:47:41;100806.00;;;12.23;100.00
32033;BME280;31720;52.638;9.216;2023-02-22T15:50:58;100804.84;;;12.12;100.00
32033;BME280;31720;52.638;9.216;2023-02-22T15:54:03;100812.16;;;12.07;100.00
32033;BME280;31720;52.638;9.216;2023-02-22T15:57:08;100807.00;;;12.06;100.00
32033;BME280;31720;52.638;9.216;2023-02-22T16:00:22;100808.38;;;11.97;100.00
32033;BME280;31720;52.638;9.216;2023-02-22T16:03:24;100803.28;;;11.94;100.00
32033;BME280;31720;52.638;9.216;2023-02-22T16:06:29;100808.81;;;11.89;100.00
32033;BME280;31720;52.638;9.216;2023-02-22T16:09:33;100813.66;;;11.81;100.00